Time;durP1;ratioP1;P1;durP2;ratioP2;P2;SDS_P1;SDS_P2;PMS_P1;PMS_P2;Temp;Humidity;BMP_temperature;BMP_pressure;BME280_temperature;BME280_humidity;BME280_pressure;Samples;Min_cycle;Max_cycle;Signal;HPM_P1;HPM_P2
2023/01/17 00:03:26;;;;;;;8.95;7.25;;;7.70;87.00;;;;;;10792174;33;20025;-72
2023/01/17 00:15:55;;;;;;;10.95;7.28;;;7.80;86.50;;;;;;10791827;33;20089;-72
2023/01/17 01:37:13;;;;;;;10.40;8.80;;;8.00;86.80;;;;;;10906099;32;20373;-72
2023/01/17 01:43:18;;;;;;;9.50;7.32;;;8.20;86.60;;;;;;10905939;32;20034;-72
2023/01/17 01:49:24;;;;;;;10.30;7.78;;;8.10;86.60;;;;;;10892075;32;20031;-72
2023/01/17 02:02:22;;;;;;;16.33;12.55;;;8.10;86.60;;;;;;10905381;32;20299;-72
2023/01/17 02:08:24;;;;;;;10.73;8.65;;;8.20;86.70;;;;;;10891161;32;20057;-72
2023/01/17 02:14:26;;;;;;;12.13;9.40;;;8.30;86.80;;;;;;10904909;32;20357;-72
2023/01/17 02:20:49;;;;;;;10.95;8.57;;;8.40;86.80;;;;;;10891395;32;20045;-72
2023/01/17 02:27:03;;;;;;;14.52;11.73;;;8.40;86.90;;;;;;10903444;32;20027;-72
2023/01/17 02:33:05;;;;;;;10.10;7.65;;;8.50;87.00;;;;;;10891061;32;20023;-72
2023/01/17 02:39:08;;;;;;;10.50;9.00;;;8.50;87.10;;;;;;10890546;32;20306;-72
2023/01/17 02:45:17;;;;;;;11.18;9.57;;;8.40;87.20;;;;;;10904318;32;20023;-72
2023/01/17 02:51:27;;;;;;;9.93;7.15;;;8.20;87.10;;;;;;10903673;32;20050;-72
2023/01/17 02:57:42;;;;;;;;;;;7.90;87.20;;;;;;10904385;32;20240;-72
2023/01/17 03:04:09;;;;;;;9.27;6.45;;;7.70;87.50;;;;;;10898546;32;19944;-72
2023/01/17 03:10:15;;;;;;;12.20;10.30;;;7.80;87.80;;;;;;10903799;32;20015;-72
2023/01/17 03:16:20;;;;;;;10.25;6.95;;;7.90;87.60;;;;;;10903615;32;20018;-72
2023/01/17 03:22:22;;;;;;;12.85;10.43;;;8.10;87.30;;;;;;10903597;32;20023;-72
2023/01/17 03:28:24;;;;;;;7.03;5.05;;;8.00;87.10;;;;;;10903443;32;20008;-72
2023/01/17 03:34:30;;;;;;;8.63;6.53;;;8.00;86.80;;;;;;10903353;32;20385;-72
2023/01/17 03:40:32;;;;;;;8.23;5.43;;;7.80;87.00;;;;;;10889501;32;20035;-72
2023/01/17 03:46:35;;;;;;;9.35;5.93;;;7.70;87.20;;;;;;10889489;32;20038;-72
2023/01/17 03:52:37;;;;;;;9.70;7.12;;;7.60;87.40;;;;;;10902390;32;20050;-72
2023/01/17 03:58:39;;;;;;;11.45;8.00;;;7.70;87.20;;;;;;10903001;32;20019;-72
2023/01/17 04:04:41;;;;;;;11.15;8.15;;;7.80;87.20;;;;;;10907709;32;20486;-72
2023/01/17 04:10:43;;;;;;;10.02;7.78;;;8.00;87.10;;;;;;10895532;32;20026;-72
2023/01/17 04:16:45;;;;;;;11.50;9.13;;;8.10;87.00;;;;;;10908980;32;20019;-72
2023/01/17 04:22:47;;;;;;;13.02;9.65;;;8.20;86.90;;;;;;10908821;32;20409;-72
2023/01/17 04:28:49;;;;;;;13.23;9.88;;;8.10;86.90;;;;;;10908648;32;20015;-72
2023/01/17 04:34:51;;;;;;;7.53;6.00;;;8.20;87.00;;;;;;10908545;32;20027;-72
2023/01/17 04:40:53;;;;;;;9.43;6.40;;;8.40;86.90;;;;;;10908749;32;20385;-72
2023/01/17 04:46:54;;;;;;;8.50;5.85;;;8.20;86.60;;;;;;10908108;32;20011;-72
2023/01/17 04:52:57;;;;;;;7.30;5.45;;;7.90;87.00;;;;;;10894071;32;20394;-72
2023/01/17 04:58:58;;;;;;;10.00;8.38;;;7.90;87.20;;;;;;10907599;32;20019;-72
2023/01/17 05:05:00;;;;;;;14.80;11.35;;;8.00;87.10;;;;;;10907468;32;20042;-72
2023/01/17 05:11:02;;;;;;;13.40;10.38;;;8.20;87.00;;;;;;10907049;32;20016;-72
2023/01/17 05:17:04;;;;;;;13.60;12.20;;;8.60;86.80;;;;;;10906732;32;20019;-72
2023/01/17 05:23:10;;;;;;;17.25;10.68;;;8.70;87.00;;;;;;10906714;32;20023;-72
2023/01/17 05:29:12;;;;;;;10.20;7.50;;;9.00;87.00;;;;;;10906566;32;20034;-72
2023/01/17 05:35:18;;;;;;;11.30;8.82;;;9.00;86.60;;;;;;10906329;32;20042;-72
2023/01/17 05:41:42;;;;;;;11.43;7.93;;;8.50;86.60;;;;;;10906115;32;20321;-72
2023/01/17 05:47:49;;;;;;;15.65;11.63;;;8.10;87.10;;;;;;10905906;32;20041;-72
2023/01/17 05:53:51;;;;;;;24.83;17.48;;;8.40;87.80;;;;;;10890544;32;20330;-72
2023/01/17 05:59:53;;;;;;;14.20;12.52;;;8.50;87.20;;;;;;10905423;32;20043;-72
2023/01/17 06:05:55;;;;;;;13.43;9.60;;;8.80;87.10;;;;;;10905159;32;20015;-72
2023/01/17 06:11:57;;;;;;;19.30;15.73;;;9.00;86.80;;;;;;10904958;32;20045;-72
2023/01/17 06:18:06;;;;;;;13.75;9.77;;;9.00;87.00;;;;;;10904901;32;20050;-72
2023/01/17 06:24:12;;;;;;;11.77;8.52;;;8.80;87.50;;;;;;10904127;32;20321;-72
2023/01/17 06:30:15;;;;;;;17.77;11.75;;;9.10;87.30;;;;;;10902684;32;20396;-72
2023/01/17 06:36:17;;;;;;;12.27;8.73;;;9.30;87.40;;;;;;10903450;32;20340;-72
2023/01/17 06:42:19;;;;;;;15.25;11.05;;;9.30;86.80;;;;;;10904201;32;20012;-72
2023/01/17 06:48:21;;;;;;;12.73;11.32;;;9.30;87.20;;;;;;10904183;32;20318;-72
2023/01/17 06:54:23;;;;;;;14.80;11.73;;;9.50;87.60;;;;;;10903983;32;20046;-72
2023/01/17 07:00:26;;;;;;;14.18;11.93;;;9.60;87.30;;;;;;10903813;32;20027;-72
2023/01/17 07:06:28;;;;;;;11.43;8.68;;;9.60;87.60;;;;;;10903526;32;20016;-72
2023/01/17 07:12:31;;;;;;;13.90;10.50;;;9.70;87.40;;;;;;10887843;32;20066;-72
2023/01/17 07:18:33;;;;;;;13.85;10.70;;;9.70;87.10;;;;;;10903207;32;20023;-72
2023/01/17 07:24:36;;;;;;;13.40;11.07;;;9.70;86.60;;;;;;10903412;32;20015;-72
2023/01/17 07:30:38;;;;;;;14.68;11.32;;;9.70;86.40;;;;;;10903341;32;20011;-72
2023/01/17 07:36:40;;;;;;;15.02;11.77;;;9.70;86.40;;;;;;10905817;32;20034;-72
2023/01/17 07:42:43;;;;;;;16.67;12.75;;;9.90;86.40;;;;;;10910317;32;20011;-72
2023/01/17 07:48:46;;;;;;;15.32;12.43;;;10.00;86.30;;;;;;10896787;32;20015;-72
2023/01/17 07:54:48;;;;;;;15.38;11.82;;;10.00;86.10;;;;;;10909750;32;20015;-72
2023/01/17 08:00:49;;;;;;;12.65;11.00;;;10.10;86.20;;;;;;10941139;32;20046;-72
2023/01/17 08:06:53;;;;;;;14.98;10.90;;;10.20;86.40;;;;;;10947804;32;20006;-72
2023/01/17 08:12:55;;;;;;;14.27;10.60;;;10.20;86.60;;;;;;10946953;32;20023;-72
2023/01/17 08:18:57;;;;;;;14.13;11.65;;;10.30;86.90;;;;;;10946700;32;20029;-72
2023/01/17 08:24:59;;;;;;;14.90;11.20;;;10.40;86.90;;;;;;10831734;27;20036;-72
2023/01/17 08:31:08;;;;;;;15.00;12.32;;;10.20;86.90;;;;;;10791486;33;20028;-72
2023/01/17 08:37:10;;;;;;;16.92;13.65;;;10.20;87.00;;;;;;10791278;33;20024;-73
2023/01/17 08:43:12;;;;;;;12.50;9.93;;;9.80;87.00;;;;;;10791200;33;20025;-72
2023/01/17 08:49:27;;;;;;;14.73;11.43;;;9.80;87.90;;;;;;10777326;33;20433;-72
2023/01/17 08:55:29;;;;;;;16.10;10.98;;;10.00;88.00;;;;;;10790735;33;20023;-72
2023/01/17 09:01:39;;;;;;;15.20;9.80;;;10.20;88.00;;;;;;10790152;33;20437;-72
2023/01/17 09:07:41;;;;;;;15.52;11.07;;;10.20;88.40;;;;;;10790588;33;20350;-72
2023/01/17 09:14:11;;;;;;;14.25;9.93;;;10.10;88.20;;;;;;10714345;33;20415;-72
2023/01/17 09:20:13;;;;;;;21.62;16.55;;;10.10;88.20;;;;;;10714314;32;20288;-73
2023/01/17 09:26:40;;;;;;;21.00;14.48;;;9.70;87.70;;;;;;10713345;33;20394;-72
2023/01/17 09:33:01;;;;;;;22.40;16.58;;;9.60;88.30;;;;;;10713960;33;20037;-72
2023/01/17 09:39:03;;;;;;;16.90;12.18;;;9.20;88.00;;;;;;10712371;33;20037;-72
2023/01/17 09:45:15;;;;;;;17.08;11.25;;;9.20;89.00;;;;;;10773143;33;20032;-72
2023/01/17 09:51:23;;;;;;;13.93;10.57;;;9.30;89.10;;;;;;10775940;32;20054;-72
2023/01/17 09:57:41;;;;;;;14.75;10.07;;;9.30;89.40;;;;;;10788097;33;20064;-72
2023/01/17 10:04:17;;;;;;;11.18;7.82;;;9.50;89.80;;;;;;10788774;33;20043;-72
2023/01/17 10:10:25;;;;;;;10.25;7.15;;;9.70;89.90;;;;;;10788798;33;20047;-72
2023/01/17 10:16:50;;;;;;;15.38;9.93;;;9.70;89.60;;;;;;10788206;33;20051;-72
2023/01/17 10:23:32;;;;;;;12.45;6.70;;;9.70;89.80;;;;;;10782261;33;20024;-71
2023/01/17 10:29:34;;;;;;;15.23;8.90;;;9.60;89.40;;;;;;10788126;33;20058;-72
2023/01/17 10:35:42;;;;;;;10.70;6.55;;;9.50;89.70;;;;;;10762715;33;20078;-72
2023/01/17 10:42:10;;;;;;;11.77;7.53;;;9.60;89.70;;;;;;10784183;33;20445;-72
2023/01/17 10:48:18;;;;;;;12.23;8.35;;;9.30;89.10;;;;;;10781895;33;20062;-73
2023/01/17 10:54:23;;;;;;;11.30;7.30;;;9.30;89.60;;;;;;10783697;32;20050;-73
2023/01/17 11:00:43;;;;;;;14.77;10.25;;;9.40;89.50;;;;;;10761518;32;20076;-73
2023/01/17 11:06:46;;;;;;;11.30;6.80;;;9.40;89.30;;;;;;10776169;32;20060;-73
2023/01/17 11:12:47;;;;;;;11.05;8.15;;;9.20;89.40;;;;;;10783937;32;20406;-73
2023/01/17 11:19:22;;;;;;;9.75;6.00;;;9.10;89.00;;;;;;10770266;32;20027;-73
2023/01/17 11:25:26;;;;;;;10.52;7.10;;;8.90;89.40;;;;;;10784431;32;20067;-73
2023/01/17 11:31:28;;;;;;;13.85;7.60;;;9.00;89.70;;;;;;10768306;32;20357;-73
2023/01/17 11:37:30;;;;;;;12.55;8.52;;;8.70;88.90;;;;;;10792604;33;20055;-73
2023/01/17 11:43:49;;;;;;;9.93;7.05;;;8.60;89.10;;;;;;10789857;33;20024;-73
2023/01/17 11:49:54;;;;;;;10.20;6.32;;;8.50;89.50;;;;;;10779773;33;20387;-72
2023/01/17 11:56:07;;;;;;;9.63;6.20;;;8.70;90.10;;;;;;10788620;33;20021;-73
2023/01/17 12:02:33;;;;;;;9.45;6.47;;;8.70;89.80;;;;;;10788438;33;20024;-73
2023/01/17 12:09:04;;;;;;;9.77;6.20;;;8.70;89.70;;;;;;10791273;33;20052;-73
2023/01/17 12:15:52;;;;;;;7.85;5.47;;;8.70;90.00;;;;;;10791933;33;20058;-73
2023/01/17 12:22:07;;;;;;;9.52;5.95;;;8.90;90.00;;;;;;10640228;33;20084;-73
2023/01/17 12:29:04;;;;;;;12.25;7.05;;;9.00;90.00;;;;;;10640766;33;20335;-73
2023/01/17 12:35:21;;;;;;;9.20;6.07;;;8.90;89.50;;;;;;10720869;33;20437;-73
2023/01/17 12:41:31;;;;;;;12.10;7.12;;;8.60;89.90;;;;;;10719491;32;20041;-73
2023/01/17 12:47:42;;;;;;;7.00;4.30;;;8.80;90.70;;;;;;10717720;33;20359;-73
2023/01/17 12:53:59;;;;;;;11.00;7.80;;;9.00;90.80;;;;;;10719836;33;20032;-73
2023/01/17 13:00:04;;;;;;;13.70;8.52;;;9.40;90.00;;;;;;10642495;33;20040;-74
2023/01/17 13:06:06;;;;;;;9.05;6.07;;;8.90;88.90;;;;;;10687781;33;20342;-73
2023/01/17 13:12:28;;;;;;;8.55;4.65;;;8.80;90.70;;;;;;10789981;33;20390;-73
2023/01/17 13:18:32;;;;;;;11.80;7.07;;;9.00;91.10;;;;;;10772960;33;20054;-73
2023/01/17 13:24:41;;;;;;;8.43;5.12;;;9.20;90.70;;;;;;10773613;33;20039;-73
2023/01/17 13:30:49;;;;;;;;;;;8.90;89.70;;;;;;10789314;33;20025;-73
2023/01/17 13:37:09;;;;;;;9.23;5.05;;;8.70;90.00;;;;;;10787765;33;19974;-72
2023/01/17 13:43:24;;;;;;;11.20;3.92;;;8.50;90.30;;;;;;10784699;33;20017;-73
2023/01/17 13:49:55;;;;;;;8.40;4.22;;;8.50;90.80;;;;;;10773178;33;20027;-73
2023/01/17 13:56:18;;;;;;;8.87;3.70;;;8.40;90.10;;;;;;10789151;33;20020;-72
2023/01/17 14:02:36;;;;;;;7.57;3.95;;;8.40;90.80;;;;;;10776525;33;20030;-72
2023/01/17 14:08:44;;;;;;;6.30;3.90;;;8.30;90.30;;;;;;10788846;33;20024;-72
2023/01/17 14:14:49;;;;;;;6.00;3.30;;;8.20;90.50;;;;;;10760642;33;20036;-72
2023/01/17 14:21:04;;;;;;;5.78;3.55;;;8.20;90.60;;;;;;10788115;33;20035;-72
2023/01/17 14:27:21;;;;;;;5.10;2.92;;;8.20;90.30;;;;;;10774945;33;20044;-73
2023/01/17 14:33:33;;;;;;;8.13;2.90;;;8.20;90.80;;;;;;10788138;33;20062;-72
2023/01/17 14:39:46;;;;;;;10.25;4.05;;;8.40;91.10;;;;;;10788016;33;20048;-73
2023/01/17 14:45:48;;;;;;;7.93;3.72;;;8.70;90.80;;;;;;10783422;33;20296;-73
2023/01/17 14:52:05;;;;;;;5.97;3.55;;;8.60;89.80;;;;;;10787638;33;20038;-72
2023/01/17 14:58:16;;;;;;;6.45;3.58;;;8.30;90.10;;;;;;10787524;33;20342;-73
2023/01/17 15:04:25;;;;;;;6.35;2.95;;;8.30;90.10;;;;;;10785873;33;20024;-73
2023/01/17 15:10:28;;;;;;;;;;;8.20;90.10;;;;;;10772406;33;20045;-73
2023/01/17 15:16:34;;;;;;;5.57;3.00;;;8.30;90.20;;;;;;10778964;33;19923;-72
2023/01/17 15:22:36;;;;;;;3.05;1.92;;;8.30;90.20;;;;;;10786848;33;20031;-72
2023/01/17 15:28:38;;;;;;;5.45;2.60;;;8.40;90.10;;;;;;10783851;33;20020;-71
2023/01/17 15:34:46;;;;;;;4.18;1.70;;;8.70;90.30;;;;;;10786684;33;20059;-71
2023/01/17 15:40:51;;;;;;;5.20;3.17;;;8.60;89.80;;;;;;10784912;33;20040;-72
2023/01/17 15:46:54;;;;;;;4.80;1.98;;;8.80;90.10;;;;;;10786290;33;20012;-72
2023/01/17 15:53:02;;;;;;;6.93;2.78;;;9.00;90.40;;;;;;10786173;33;20106;-72
2023/01/17 15:59:37;;;;;;;3.13;2.47;;;8.90;90.40;;;;;;10789948;33;20017;-72
2023/01/17 16:05:42;;;;;;;4.87;2.45;;;9.10;90.80;;;;;;10790359;33;20003;-72
2023/01/17 16:11:44;;;;;;;3.35;2.08;;;9.20;90.30;;;;;;10792068;33;20024;-72
2023/01/17 16:17:48;;;;;;;5.55;2.83;;;9.20;90.70;;;;;;10791966;33;20029;-72
2023/01/17 16:23:50;;;;;;;3.03;1.87;;;9.40;90.40;;;;;;10795311;27;20055;-72
2023/01/17 16:29:52;;;;;;;2.28;1.60;;;9.50;90.40;;;;;;10791593;33;20016;-72
2023/01/17 16:35:54;;;;;;;5.03;2.20;;;9.60;89.90;;;;;;10791356;33;20050;-72
2023/01/17 16:42:01;;;;;;;2.72;1.75;;;9.60;90.10;;;;;;10787324;33;20046;-72
2023/01/17 16:48:04;;;;;;;6.60;2.40;;;9.60;89.90;;;;;;10791086;33;20016;-71
2023/01/17 16:54:06;;;;;;;5.37;3.75;;;9.50;89.70;;;;;;10790903;33;20090;-72
2023/01/17 17:00:09;;;;;;;3.42;2.45;;;9.60;89.70;;;;;;10790656;33;20012;-72
2023/01/17 17:06:13;;;;;;;5.90;3.58;;;9.60;89.90;;;;;;10775781;33;20025;-72
2023/01/17 17:12:15;;;;;;;6.75;3.72;;;9.50;89.50;;;;;;10787668;33;20020;-72
2023/01/17 17:18:17;;;;;;;13.62;6.22;;;9.10;89.60;;;;;;10790388;33;20436;-72
2023/01/17 17:24:19;;;;;;;7.55;5.50;;;9.20;89.90;;;;;;10777052;33;20300;-72
2023/01/17 17:30:21;;;;;;;8.85;6.07;;;9.20;89.50;;;;;;10776719;33;20032;-72
2023/01/17 17:36:23;;;;;;;6.60;4.65;;;9.30;89.20;;;;;;10789684;33;20421;-72
2023/01/17 17:42:25;;;;;;;7.43;5.15;;;9.10;89.10;;;;;;10785786;33;20077;-72
2023/01/17 17:48:27;;;;;;;14.48;9.38;;;8.80;89.20;;;;;;10789334;33;20017;-72
2023/01/17 17:54:29;;;;;;;6.90;4.82;;;8.50;89.30;;;;;;10789069;33;20028;-72
2023/01/17 18:00:31;;;;;;;6.87;4.80;;;8.70;89.50;;;;;;10789118;33;20392;-72
2023/01/17 18:06:35;;;;;;;13.25;6.87;;;8.80;89.50;;;;;;10784968;33;20038;-71
2023/01/17 18:12:37;;;;;;;8.82;6.28;;;8.70;89.20;;;;;;10788749;33;20334;-72
2023/01/17 18:18:44;;;;;;;10.50;6.05;;;8.50;89.20;;;;;;10771511;33;20025;-72
2023/01/17 18:24:45;;;;;;;7.07;4.72;;;8.40;89.40;;;;;;10787784;33;20081;-71
2023/01/17 18:30:48;;;;;;;9.05;6.40;;;8.40;89.60;;;;;;10788324;33;20024;-71
2023/01/17 18:36:50;;;;;;;10.40;6.57;;;8.50;89.50;;;;;;10788128;33;20043;-71
2023/01/17 18:42:53;;;;;;;16.95;11.57;;;8.50;89.20;;;;;;10787918;33;20055;-71
2023/01/17 18:48:56;;;;;;;12.60;9.95;;;8.40;89.20;;;;;;10787792;33;20165;-71
2023/01/17 18:54:58;;;;;;;12.43;8.38;;;8.50;89.20;;;;;;10786131;33;20410;-72
2023/01/17 19:01:10;;;;;;;12.73;9.82;;;8.10;88.50;;;;;;10787460;33;20021;-72
2023/01/17 19:07:12;;;;;;;15.05;10.63;;;7.90;88.70;;;;;;10786471;33;20435;-72
2023/01/17 19:13:14;;;;;;;14.13;9.75;;;7.70;88.80;;;;;;10787183;33;20047;-72
2023/01/17 19:19:17;;;;;;;14.50;11.93;;;7.70;89.00;;;;;;10785790;33;20032;-72
2023/01/17 19:25:19;;;;;;;13.85;10.38;;;7.70;88.80;;;;;;10786938;33;20039;-76
2023/01/17 19:31:27;;;;;;;9.35;6.68;;;7.70;88.70;;;;;;10788039;33;20051;-76
2023/01/17 19:37:29;;;;;;;16.83;9.23;;;7.70;88.80;;;;;;10792301;33;20043;-75
2023/01/17 19:43:31;;;;;;;10.18;6.95;;;7.80;89.00;;;;;;10793157;33;20418;-76
2023/01/17 19:49:33;;;;;;;14.98;11.48;;;7.90;88.70;;;;;;10792043;33;20012;-76
2023/01/17 19:55:38;;;;;;;10.98;7.55;;;7.80;88.70;;;;;;10791356;33;20437;-75
2023/01/17 20:01:44;;;;;;;13.38;9.00;;;7.80;88.80;;;;;;10791898;33;20308;-75
2023/01/17 20:07:46;;;;;;;15.15;9.48;;;7.70;88.70;;;;;;10791667;33;20028;-75
2023/01/17 20:13:53;;;;;;;13.05;10.32;;;7.60;88.60;;;;;;10792182;33;20109;-75
2023/01/17 20:19:54;;;;;;;16.92;11.38;;;7.50;88.60;;;;;;10775351;33;20051;-76
2023/01/17 20:26:00;;;;;;;14.55;10.27;;;7.40;88.40;;;;;;10791763;33;20140;-75
2023/01/17 20:32:02;;;;;;;14.57;10.98;;;7.40;88.50;;;;;;10791618;33;20017;-75
2023/01/17 20:38:06;;;;;;;16.67;10.85;;;7.40;88.30;;;;;;10787491;33;20013;-73
2023/01/17 20:44:15;;;;;;;17.95;10.07;;;7.30;88.20;;;;;;10790484;33;20025;-72
2023/01/17 20:50:17;;;;;;;17.30;13.07;;;7.30;88.10;;;;;;10791226;33;20046;-72
2023/01/17 20:56:19;;;;;;;12.15;8.05;;;7.40;88.40;;;;;;10790893;33;20067;-72
2023/01/17 21:02:21;;;;;;;11.85;8.32;;;7.50;88.40;;;;;;10789506;33;20406;-72
2023/01/17 21:08:24;;;;;;;10.73;6.50;;;7.50;88.30;;;;;;10790598;33;20486;-73
2023/01/17 21:14:28;;;;;;;8.32;5.68;;;7.40;88.50;;;;;;10790429;33;20060;-73
2023/01/17 21:20:33;;;;;;;10.18;6.10;;;7.40;88.60;;;;;;10776455;33;20398;-73
2023/01/17 21:26:37;;;;;;;9.55;6.32;;;7.30;88.40;;;;;;10777138;33;20012;-73
2023/01/17 21:32:39;;;;;;;10.10;6.32;;;7.30;88.60;;;;;;10786413;33;20028;-72
2023/01/17 21:38:41;;;;;;;8.80;5.72;;;7.30;88.60;;;;;;10789817;33;20444;-73
2023/01/17 21:44:58;;;;;;;7.43;5.40;;;7.30;88.70;;;;;;10789648;33;20021;-73
2023/01/17 21:51:07;;;;;;;6.20;4.28;;;7.50;88.70;;;;;;10789390;33;20016;-73
2023/01/17 22:03:32;;;;;;;5.65;3.75;;;7.30;88.60;;;;;;10788060;33;20047;-73
2023/01/17 22:09:34;;;;;;;7.28;4.75;;;7.30;88.70;;;;;;10788874;33;20043;-73
2023/01/17 22:15:36;;;;;;;14.93;8.52;;;7.40;88.80;;;;;;10788664;33;20056;-73
2023/01/17 22:21:38;;;;;;;11.95;9.43;;;7.70;88.80;;;;;;10788441;33;20032;-73
2023/01/17 22:27:39;;;;;;;9.95;6.05;;;7.60;88.30;;;;;;10788383;33;20046;-73
2023/01/17 22:33:43;;;;;;;8.98;5.37;;;7.40;88.40;;;;;;10771570;33;20024;-73
2023/01/17 22:39:45;;;;;;;6.85;4.40;;;7.40;88.70;;;;;;10775007;33;20025;-73
2023/01/17 22:45:47;;;;;;;8.70;5.37;;;7.40;88.70;;;;;;10784094;33;20421;-72
2023/01/17 22:51:49;;;;;;;5.80;4.25;;;7.40;88.70;;;;;;10787841;33;20024;-73
2023/01/17 22:57:51;;;;;;;9.40;5.25;;;7.30;88.70;;;;;;10787668;33;20032;-72
2023/01/17 23:04:00;;;;;;;5.43;3.80;;;7.30;88.70;;;;;;10783660;33;20387;-72
2023/01/17 23:23:03;;;;;;;8.20;5.00;;;7.50;88.70;;;;;;10793646;33;20020;-73
2023/01/17 23:29:06;;;;;;;6.50;4.30;;;7.50;88.60;;;;;;10780504;33;20071;-73
2023/01/17 23:35:10;;;;;;;6.00;3.70;;;7.40;88.70;;;;;;10793314;33;20440;-72
2023/01/17 23:47:33;;;;;;;6.22;4.30;;;7.40;88.60;;;;;;10789668;33;20039;-73
2023/01/17 23:53:37;;;;;;;6.47;4.40;;;7.40;88.80;;;;;;10792780;33;20039;-73
2023/01/17 23:59:39;;;;;;;7.40;4.93;;;7.50;88.70;;;;;;10779335;33;20050;-73
